sensor_id;sensor_type;location;lat;lon;timestamp;P1;durP1;ratioP1;P2;durP2;ratioP2
24421;SDS011;12600;53.326;-6.298;2022-12-10T00:01:17;43.72;;;30.88;;
24421;SDS011;12600;53.326;-6.298;2022-12-10T00:04:11;47.35;;;34.67;;
24421;SDS011;12600;53.326;-6.298;2022-12-10T00:07:01;65.72;;;58.60;;
24421;SDS011;12600;53.326;-6.298;2022-12-10T00:09:51;55.58;;;32.28;;
24421;SDS011;12600;53.326;-6.298;2022-12-10T00:12:40;48.83;;;43.72;;
24421;SDS011;12600;53.326;-6.298;2022-12-10T00:15:29;46.72;;;31.40;;
24421;SDS011;12600;53.326;-6.298;2022-12-10T00:18:22;51.33;;;28.67;;
24421;SDS011;12600;53.326;-6.298;2022-12-10T00:21:14;46.10;;;30.65;;
24421;SDS011;12600;53.326;-6.298;2022-12-10T00:24:06;48.28;;;30.92;;
24421;SDS011;12600;53.326;-6.298;2022-12-10T00:26:57;45.03;;;28.35;;
24421;SDS011;12600;53.326;-6.298;2022-12-10T00:29:47;40.08;;;30.65;;
24421;SDS011;12600;53.326;-6.298;2022-12-10T00:32:36;40.70;;;26.17;;
24421;SDS011;12600;53.326;-6.298;2022-12-10T00:35:25;49.42;;;44.03;;
24421;SDS011;12600;53.326;-6.298;2022-12-10T00:38:16;37.30;;;27.77;;
24421;SDS011;12600;53.326;-6.298;2022-12-10T00:41:07;42.03;;;37.30;;
24421;SDS011;12600;53.326;-6.298;2022-12-10T00:43:57;51.88;;;47.03;;
24421;SDS011;12600;53.326;-6.298;2022-12-10T00:46:47;42.53;;;30.17;;
24421;SDS011;12600;53.326;-6.298;2022-12-10T00:49:36;37.33;;;29.90;;
24421;SDS011;12600;53.326;-6.298;2022-12-10T00:52:26;46.47;;;30.77;;
24421;SDS011;12600;53.326;-6.298;2022-12-10T00:55:18;106.47;;;98.75;;
24421;SDS011;12600;53.326;-6.298;2022-12-10T00:58:08;51.58;;;47.50;;
24421;SDS011;12600;53.326;-6.298;2022-12-10T01:01:06;36.40;;;26.42;;
24421;SDS011;12600;53.326;-6.298;2022-12-10T01:04:01;33.70;;;30.17;;
24421;SDS011;12600;53.326;-6.298;2022-12-10T01:06:54;32.78;;;29.27;;
24421;SDS011;12600;53.326;-6.298;2022-12-10T01:09:43;33.42;;;26.85;;
24421;SDS011;12600;53.326;-6.298;2022-12-10T01:12:35;54.33;;;50.20;;
24421;SDS011;12600;53.326;-6.298;2022-12-10T01:15:24;35.70;;;27.02;;
24421;SDS011;12600;53.326;-6.298;2022-12-10T01:18:14;29.75;;;26.10;;
24421;SDS011;12600;53.326;-6.298;2022-12-10T01:21:03;43.22;;;39.10;;
24421;SDS011;12600;53.326;-6.298;2022-12-10T01:23:55;50.30;;;46.42;;
24421;SDS011;12600;53.326;-6.298;2022-12-10T01:26:45;54.85;;;50.10;;
24421;SDS011;12600;53.326;-6.298;2022-12-10T01:29:36;33.17;;;25.55;;
24421;SDS011;12600;53.326;-6.298;2022-12-10T01:32:28;30.80;;;24.52;;
24421;SDS011;12600;53.326;-6.298;2022-12-10T01:35:17;50.58;;;46.25;;
24421;SDS011;12600;53.326;-6.298;2022-12-10T01:38:07;36.78;;;30.25;;
24421;SDS011;12600;53.326;-6.298;2022-12-10T01:40:56;35.65;;;31.83;;
24421;SDS011;12600;53.326;-6.298;2022-12-10T01:43:50;36.33;;;27.92;;
24421;SDS011;12600;53.326;-6.298;2022-12-10T01:46:46;34.83;;;30.90;;
24421;SDS011;12600;53.326;-6.298;2022-12-10T01:49:39;52.80;;;47.95;;
24421;SDS011;12600;53.326;-6.298;2022-12-10T01:52:32;43.53;;;30.48;;
24421;SDS011;12600;53.326;-6.298;2022-12-10T01:58:41;33.15;;;29.92;;
24421;SDS011;12600;53.326;-6.298;2022-12-10T02:01:32;33.25;;;24.40;;
24421;SDS011;12600;53.326;-6.298;2022-12-10T02:04:36;33.08;;;25.23;;
24421;SDS011;12600;53.326;-6.298;2022-12-10T02:07:42;30.83;;;24.15;;
24421;SDS011;12600;53.326;-6.298;2022-12-10T02:10:52;31.92;;;25.85;;
24421;SDS011;12600;53.326;-6.298;2022-12-10T02:13:53;31.47;;;27.77;;
24421;SDS011;12600;53.326;-6.298;2022-12-10T02:16:51;45.45;;;41.05;;
24421;SDS011;12600;53.326;-6.298;2022-12-10T02:19:52;35.75;;;32.15;;
24421;SDS011;12600;53.326;-6.298;2022-12-10T02:22:56;35.10;;;31.52;;
24421;SDS011;12600;53.326;-6.298;2022-12-10T02:25:51;27.38;;;24.52;;
24421;SDS011;12600;53.326;-6.298;2022-12-10T02:28:48;27.05;;;23.67;;
24421;SDS011;12600;53.326;-6.298;2022-12-10T02:31:46;42.22;;;39.00;;
24421;SDS011;12600;53.326;-6.298;2022-12-10T02:34:42;34.75;;;31.10;;
24421;SDS011;12600;53.326;-6.298;2022-12-10T02:37:38;57.53;;;53.25;;
24421;SDS011;12600;53.326;-6.298;2022-12-10T02:40:33;34.63;;;31.42;;
24421;SDS011;12600;53.326;-6.298;2022-12-10T02:43:27;42.03;;;38.58;;
24421;SDS011;12600;53.326;-6.298;2022-12-10T02:46:18;91.03;;;85.20;;
24421;SDS011;12600;53.326;-6.298;2022-12-10T02:49:11;49.58;;;45.83;;
24421;SDS011;12600;53.326;-6.298;2022-12-10T02:52:07;48.55;;;44.75;;
24421;SDS011;12600;53.326;-6.298;2022-12-10T02:55:01;82.57;;;77.75;;
24421;SDS011;12600;53.326;-6.298;2022-12-10T02:57:56;80.88;;;74.97;;
24421;SDS011;12600;53.326;-6.298;2022-12-10T03:00:57;28.45;;;25.52;;
24421;SDS011;12600;53.326;-6.298;2022-12-10T03:03:56;50.95;;;46.60;;
24421;SDS011;12600;53.326;-6.298;2022-12-10T03:06:54;39.10;;;35.40;;
24421;SDS011;12600;53.326;-6.298;2022-12-10T03:09:51;35.65;;;30.45;;
24421;SDS011;12600;53.326;-6.298;2022-12-10T03:12:48;44.50;;;40.72;;
24421;SDS011;12600;53.326;-6.298;2022-12-10T03:15:46;72.43;;;67.47;;
24421;SDS011;12600;53.326;-6.298;2022-12-10T03:18:38;27.67;;;22.67;;
24421;SDS011;12600;53.326;-6.298;2022-12-10T03:21:28;29.73;;;22.75;;
24421;SDS011;12600;53.326;-6.298;2022-12-10T03:24:28;49.67;;;45.40;;
24421;SDS011;12600;53.326;-6.298;2022-12-10T03:27:19;55.65;;;51.17;;
24421;SDS011;12600;53.326;-6.298;2022-12-10T03:30:11;39.25;;;35.15;;
24421;SDS011;12600;53.326;-6.298;2022-12-10T03:33:01;56.03;;;51.03;;
24421;SDS011;12600;53.326;-6.298;2022-12-10T03:35:52;41.90;;;38.05;;
24421;SDS011;12600;53.326;-6.298;2022-12-10T03:38:41;34.75;;;31.15;;
24421;SDS011;12600;53.326;-6.298;2022-12-10T03:41:32;56.13;;;51.92;;
24421;SDS011;12600;53.326;-6.298;2022-12-10T03:44:29;31.63;;;24.95;;
24421;SDS011;12600;53.326;-6.298;2022-12-10T03:47:20;32.33;;;28.13;;
24421;SDS011;12600;53.326;-6.298;2022-12-10T03:50:10;35.88;;;29.20;;
24421;SDS011;12600;53.326;-6.298;2022-12-10T03:53:00;34.80;;;30.48;;
24421;SDS011;12600;53.326;-6.298;2022-12-10T03:55:49;33.28;;;27.75;;
24421;SDS011;12600;53.326;-6.298;2022-12-10T03:58:40;65.57;;;60.28;;
24421;SDS011;12600;53.326;-6.298;2022-12-10T04:01:29;31.52;;;25.17;;
24421;SDS011;12600;53.326;-6.298;2022-12-10T04:04:19;34.63;;;29.17;;
24421;SDS011;12600;53.326;-6.298;2022-12-10T04:07:08;63.22;;;58.53;;
24421;SDS011;12600;53.326;-6.298;2022-12-10T04:09:58;35.25;;;26.95;;
24421;SDS011;12600;53.326;-6.298;2022-12-10T04:12:47;36.05;;;29.38;;
24421;SDS011;12600;53.326;-6.298;2022-12-10T04:15:59;74.75;;;69.55;;
24421;SDS011;12600;53.326;-6.298;2022-12-10T04:19:06;43.33;;;38.85;;
24421;SDS011;12600;53.326;-6.298;2022-12-10T04:21:57;37.00;;;30.30;;
24421;SDS011;12600;53.326;-6.298;2022-12-10T04:25:04;56.53;;;50.85;;
24421;SDS011;12600;53.326;-6.298;2022-12-10T04:28:12;36.30;;;32.08;;
24421;SDS011;12600;53.326;-6.298;2022-12-10T04:31:02;40.13;;;34.88;;
24421;SDS011;12600;53.326;-6.298;2022-12-10T04:33:52;41.22;;;33.35;;
24421;SDS011;12600;53.326;-6.298;2022-12-10T04:36:42;52.20;;;47.20;;
24421;SDS011;12600;53.326;-6.298;2022-12-10T04:39:31;46.13;;;41.45;;
24421;SDS011;12600;53.326;-6.298;2022-12-10T04:42:21;39.00;;;29.75;;
24421;SDS011;12600;53.326;-6.298;2022-12-10T04:45:11;70.15;;;64.70;;
24421;SDS011;12600;53.326;-6.298;2022-12-10T04:48:02;40.33;;;36.10;;
24421;SDS011;12600;53.326;-6.298;2022-12-10T04:50:52;37.22;;;29.52;;
24421;SDS011;12600;53.326;-6.298;2022-12-10T04:53:42;41.78;;;37.65;;
24421;SDS011;12600;53.326;-6.298;2022-12-10T04:56:31;39.13;;;27.55;;
24421;SDS011;12600;53.326;-6.298;2022-12-10T04:59:21;47.05;;;43.35;;
24421;SDS011;12600;53.326;-6.298;2022-12-10T05:02:11;37.90;;;28.00;;
24421;SDS011;12600;53.326;-6.298;2022-12-10T05:05:02;35.17;;;29.40;;
24421;SDS011;12600;53.326;-6.298;2022-12-10T05:07:52;44.47;;;30.67;;
24421;SDS011;12600;53.326;-6.298;2022-12-10T05:10:42;56.47;;;51.20;;
24421;SDS011;12600;53.326;-6.298;2022-12-10T05:13:31;46.53;;;41.95;;
24421;SDS011;12600;53.326;-6.298;2022-12-10T05:16:21;34.38;;;30.90;;
24421;SDS011;12600;53.326;-6.298;2022-12-10T05:19:12;36.03;;;31.13;;
24421;SDS011;12600;53.326;-6.298;2022-12-10T05:22:03;42.42;;;31.27;;
24421;SDS011;12600;53.326;-6.298;2022-12-10T05:25:10;46.20;;;41.75;;
24421;SDS011;12600;53.326;-6.298;2022-12-10T05:27:59;38.33;;;30.80;;
24421;SDS011;12600;53.326;-6.298;2022-12-10T05:30:49;41.95;;;38.25;;
24421;SDS011;12600;53.326;-6.298;2022-12-10T05:33:38;56.92;;;52.03;;
24421;SDS011;12600;53.326;-6.298;2022-12-10T05:36:29;50.10;;;46.03;;
24421;SDS011;12600;53.326;-6.298;2022-12-10T05:39:21;46.47;;;41.35;;
24421;SDS011;12600;53.326;-6.298;2022-12-10T05:42:10;43.22;;;37.22;;
24421;SDS011;12600;53.326;-6.298;2022-12-10T05:44:59;57.80;;;52.70;;
24421;SDS011;12600;53.326;-6.298;2022-12-10T05:47:49;44.83;;;37.75;;
24421;SDS011;12600;53.326;-6.298;2022-12-10T05:50:38;82.00;;;75.25;;
24421;SDS011;12600;53.326;-6.298;2022-12-10T05:53:28;41.72;;;32.13;;
24421;SDS011;12600;53.326;-6.298;2022-12-10T05:56:19;43.40;;;29.63;;
24421;SDS011;12600;53.326;-6.298;2022-12-10T05:59:11;55.40;;;50.08;;
24421;SDS011;12600;53.326;-6.298;2022-12-10T06:02:03;39.28;;;34.53;;
24421;SDS011;12600;53.326;-6.298;2022-12-10T06:04:52;56.22;;;51.83;;
24421;SDS011;12600;53.326;-6.298;2022-12-10T06:07:42;71.60;;;66.13;;
24421;SDS011;12600;53.326;-6.298;2022-12-10T06:10:33;41.92;;;28.40;;
24421;SDS011;12600;53.326;-6.298;2022-12-10T06:13:24;40.63;;;28.17;;
24421;SDS011;12600;53.326;-6.298;2022-12-10T06:16:13;50.88;;;45.38;;
24421;SDS011;12600;53.326;-6.298;2022-12-10T06:19:03;40.70;;;28.33;;
24421;SDS011;12600;53.326;-6.298;2022-12-10T06:21:52;57.15;;;50.92;;
24421;SDS011;12600;53.326;-6.298;2022-12-10T06:24:42;44.47;;;40.17;;
24421;SDS011;12600;53.326;-6.298;2022-12-10T06:27:31;38.97;;;28.83;;
24421;SDS011;12600;53.326;-6.298;2022-12-10T06:30:22;37.20;;;27.63;;
24421;SDS011;12600;53.326;-6.298;2022-12-10T06:33:12;62.75;;;57.70;;
24421;SDS011;12600;53.326;-6.298;2022-12-10T06:36:02;39.28;;;28.70;;
24421;SDS011;12600;53.326;-6.298;2022-12-10T06:38:53;59.53;;;54.55;;
24421;SDS011;12600;53.326;-6.298;2022-12-10T06:41:42;34.40;;;27.70;;
24421;SDS011;12600;53.326;-6.298;2022-12-10T06:44:33;35.95;;;31.08;;
24421;SDS011;12600;53.326;-6.298;2022-12-10T06:47:24;42.30;;;33.45;;
24421;SDS011;12600;53.326;-6.298;2022-12-10T06:50:13;38.42;;;29.77;;
24421;SDS011;12600;53.326;-6.298;2022-12-10T06:53:02;70.88;;;65.72;;
24421;SDS011;12600;53.326;-6.298;2022-12-10T06:55:52;48.70;;;44.40;;
24421;SDS011;12600;53.326;-6.298;2022-12-10T06:58:41;35.63;;;26.63;;
24421;SDS011;12600;53.326;-6.298;2022-12-10T07:01:31;33.20;;;27.65;;
24421;SDS011;12600;53.326;-6.298;2022-12-10T07:04:22;40.90;;;33.33;;
24421;SDS011;12600;53.326;-6.298;2022-12-10T07:07:12;36.60;;;30.45;;
24421;SDS011;12600;53.326;-6.298;2022-12-10T07:10:02;42.22;;;32.95;;
24421;SDS011;12600;53.326;-6.298;2022-12-10T07:12:53;39.13;;;35.05;;
24421;SDS011;12600;53.326;-6.298;2022-12-10T07:15:42;38.88;;;30.73;;
24421;SDS011;12600;53.326;-6.298;2022-12-10T07:18:31;54.90;;;50.17;;
24421;SDS011;12600;53.326;-6.298;2022-12-10T07:21:23;41.50;;;29.80;;
24421;SDS011;12600;53.326;-6.298;2022-12-10T07:27:06;34.33;;;30.63;;
24421;SDS011;12600;53.326;-6.298;2022-12-10T07:29:56;35.88;;;29.67;;
24421;SDS011;12600;53.326;-6.298;2022-12-10T07:32:45;33.00;;;28.08;;
24421;SDS011;12600;53.326;-6.298;2022-12-10T07:35:37;37.65;;;30.15;;
24421;SDS011;12600;53.326;-6.298;2022-12-10T07:38:36;39.65;;;33.58;;
24421;SDS011;12600;53.326;-6.298;2022-12-10T07:41:26;46.60;;;42.05;;
24421;SDS011;12600;53.326;-6.298;2022-12-10T07:44:17;36.53;;;32.42;;
24421;SDS011;12600;53.326;-6.298;2022-12-10T07:47:08;54.10;;;49.50;;
24421;SDS011;12600;53.326;-6.298;2022-12-10T07:49:57;43.05;;;34.92;;
24421;SDS011;12600;53.326;-6.298;2022-12-10T07:52:46;41.42;;;32.33;;
24421;SDS011;12600;53.326;-6.298;2022-12-10T07:55:38;53.28;;;44.80;;
24421;SDS011;12600;53.326;-6.298;2022-12-10T07:58:27;41.38;;;37.05;;
24421;SDS011;12600;53.326;-6.298;2022-12-10T08:01:17;43.72;;;34.95;;
24421;SDS011;12600;53.326;-6.298;2022-12-10T08:04:10;63.55;;;58.15;;
24421;SDS011;12600;53.326;-6.298;2022-12-10T08:06:59;37.78;;;28.48;;
24421;SDS011;12600;53.326;-6.298;2022-12-10T08:09:48;42.05;;;31.10;;
24421;SDS011;12600;53.326;-6.298;2022-12-10T08:12:40;38.03;;;34.13;;
24421;SDS011;12600;53.326;-6.298;2022-12-10T08:15:29;33.85;;;26.27;;
24421;SDS011;12600;53.326;-6.298;2022-12-10T08:18:19;31.50;;;25.25;;
24421;SDS011;12600;53.326;-6.298;2022-12-10T08:21:09;34.05;;;25.63;;
24421;SDS011;12600;53.326;-6.298;2022-12-10T08:24:03;36.75;;;32.95;;
24421;SDS011;12600;53.326;-6.298;2022-12-10T08:26:53;37.70;;;26.52;;
24421;SDS011;12600;53.326;-6.298;2022-12-10T08:29:43;38.33;;;29.25;;
24421;SDS011;12600;53.326;-6.298;2022-12-10T08:32:33;53.03;;;47.58;;
24421;SDS011;12600;53.326;-6.298;2022-12-10T08:35:22;54.20;;;49.60;;
24421;SDS011;12600;53.326;-6.298;2022-12-10T08:38:12;36.03;;;32.22;;
24421;SDS011;12600;53.326;-6.298;2022-12-10T08:41:05;31.77;;;26.50;;
24421;SDS011;12600;53.326;-6.298;2022-12-10T08:43:56;31.00;;;27.25;;
24421;SDS011;12600;53.326;-6.298;2022-12-10T08:46:46;29.35;;;24.95;;
24421;SDS011;12600;53.326;-6.298;2022-12-10T08:49:36;34.70;;;26.27;;
24421;SDS011;12600;53.326;-6.298;2022-12-10T08:52:25;29.98;;;26.77;;
24421;SDS011;12600;53.326;-6.298;2022-12-10T08:55:16;48.90;;;44.90;;
24421;SDS011;12600;53.326;-6.298;2022-12-10T08:58:05;37.95;;;33.17;;
24421;SDS011;12600;53.326;-6.298;2022-12-10T09:00:56;31.95;;;26.67;;
24421;SDS011;12600;53.326;-6.298;2022-12-10T09:03:47;72.85;;;67.07;;
24421;SDS011;12600;53.326;-6.298;2022-12-10T09:06:37;37.38;;;25.00;;
24421;SDS011;12600;53.326;-6.298;2022-12-10T09:09:26;29.13;;;26.08;;
24421;SDS011;12600;53.326;-6.298;2022-12-10T09:12:16;31.73;;;27.98;;
24421;SDS011;12600;53.326;-6.298;2022-12-10T09:15:06;32.67;;;28.40;;
24421;SDS011;12600;53.326;-6.298;2022-12-10T09:17:58;55.47;;;50.08;;
24421;SDS011;12600;53.326;-6.298;2022-12-10T09:20:48;60.05;;;34.17;;
24421;SDS011;12600;53.326;-6.298;2022-12-10T09:23:38;53.17;;;33.45;;
24421;SDS011;12600;53.326;-6.298;2022-12-10T09:26:28;53.65;;;48.72;;
24421;SDS011;12600;53.326;-6.298;2022-12-10T09:29:17;52.63;;;47.95;;
24421;SDS011;12600;53.326;-6.298;2022-12-10T09:32:07;31.27;;;26.90;;
24421;SDS011;12600;53.326;-6.298;2022-12-10T09:34:56;38.47;;;34.30;;
24421;SDS011;12600;53.326;-6.298;2022-12-10T09:37:47;35.47;;;26.20;;
24421;SDS011;12600;53.326;-6.298;2022-12-10T09:40:39;32.42;;;26.15;;
24421;SDS011;12600;53.326;-6.298;2022-12-10T09:43:41;36.22;;;25.48;;
24421;SDS011;12600;53.326;-6.298;2022-12-10T09:46:39;35.20;;;31.42;;
24421;SDS011;12600;53.326;-6.298;2022-12-10T09:49:39;49.45;;;29.13;;
24421;SDS011;12600;53.326;-6.298;2022-12-10T09:52:42;46.80;;;29.73;;
24421;SDS011;12600;53.326;-6.298;2022-12-10T09:55:36;39.15;;;29.77;;
24421;SDS011;12600;53.326;-6.298;2022-12-10T09:58:30;34.53;;;28.13;;
24421;SDS011;12600;53.326;-6.298;2022-12-10T10:01:28;37.40;;;30.02;;
24421;SDS011;12600;53.326;-6.298;2022-12-10T10:04:21;37.13;;;28.95;;
24421;SDS011;12600;53.326;-6.298;2022-12-10T10:07:14;37.15;;;29.42;;
24421;SDS011;12600;53.326;-6.298;2022-12-10T10:10:13;41.22;;;31.58;;
24421;SDS011;12600;53.326;-6.298;2022-12-10T10:13:18;38.38;;;29.48;;
24421;SDS011;12600;53.326;-6.298;2022-12-10T10:16:18;44.17;;;32.17;;
24421;SDS011;12600;53.326;-6.298;2022-12-10T10:19:14;35.53;;;30.90;;
24421;SDS011;12600;53.326;-6.298;2022-12-10T10:22:07;37.75;;;33.88;;
24421;SDS011;12600;53.326;-6.298;2022-12-10T10:24:58;35.88;;;32.03;;
24421;SDS011;12600;53.326;-6.298;2022-12-10T10:27:49;39.90;;;35.75;;
24421;SDS011;12600;53.326;-6.298;2022-12-10T10:30:41;41.70;;;38.10;;
24421;SDS011;12600;53.326;-6.298;2022-12-10T10:33:32;32.63;;;27.15;;
24421;SDS011;12600;53.326;-6.298;2022-12-10T10:36:43;41.85;;;31.92;;
24421;SDS011;12600;53.326;-6.298;2022-12-10T10:39:34;40.80;;;35.40;;
24421;SDS011;12600;53.326;-6.298;2022-12-10T10:42:27;41.58;;;30.88;;
24421;SDS011;12600;53.326;-6.298;2022-12-10T10:48:42;51.63;;;35.33;;
24421;SDS011;12600;53.326;-6.298;2022-12-10T10:51:32;43.83;;;33.97;;
24421;SDS011;12600;53.326;-6.298;2022-12-10T10:54:33;43.78;;;30.17;;
24421;SDS011;12600;53.326;-6.298;2022-12-10T10:57:29;44.65;;;30.77;;
24421;SDS011;12600;53.326;-6.298;2022-12-10T11:00:23;50.90;;;34.22;;
24421;SDS011;12600;53.326;-6.298;2022-12-10T11:03:13;53.97;;;41.30;;
24421;SDS011;12600;53.326;-6.298;2022-12-10T11:06:04;51.25;;;34.55;;
24421;SDS011;12600;53.326;-6.298;2022-12-10T11:11:49;48.78;;;30.13;;
24421;SDS011;12600;53.326;-6.298;2022-12-10T11:14:40;43.78;;;28.65;;
24421;SDS011;12600;53.326;-6.298;2022-12-10T11:17:33;46.20;;;30.58;;
24421;SDS011;12600;53.326;-6.298;2022-12-10T11:20:24;40.70;;;29.63;;
24421;SDS011;12600;53.326;-6.298;2022-12-10T11:23:15;41.35;;;33.42;;
24421;SDS011;12600;53.326;-6.298;2022-12-10T11:26:08;45.67;;;32.63;;
24421;SDS011;12600;53.326;-6.298;2022-12-10T11:29:12;49.50;;;36.72;;
24421;SDS011;12600;53.326;-6.298;2022-12-10T11:32:28;43.80;;;30.70;;
24421;SDS011;12600;53.326;-6.298;2022-12-10T11:35:47;40.72;;;31.33;;
24421;SDS011;12600;53.326;-6.298;2022-12-10T11:38:50;55.63;;;50.65;;
24421;SDS011;12600;53.326;-6.298;2022-12-10T11:41:52;38.22;;;30.20;;
24421;SDS011;12600;53.326;-6.298;2022-12-10T11:44:49;47.10;;;42.58;;
24421;SDS011;12600;53.326;-6.298;2022-12-10T11:47:53;38.17;;;29.25;;
24421;SDS011;12600;53.326;-6.298;2022-12-10T11:50:59;48.22;;;43.03;;
24421;SDS011;12600;53.326;-6.298;2022-12-10T11:54:07;53.70;;;49.05;;
24421;SDS011;12600;53.326;-6.298;2022-12-10T11:57:14;71.38;;;42.40;;
24421;SDS011;12600;53.326;-6.298;2022-12-10T12:00:16;48.33;;;39.15;;
24421;SDS011;12600;53.326;-6.298;2022-12-10T12:03:16;41.65;;;34.88;;
24421;SDS011;12600;53.326;-6.298;2022-12-10T12:06:31;45.45;;;32.60;;
24421;SDS011;12600;53.326;-6.298;2022-12-10T12:09:40;52.60;;;35.35;;
24421;SDS011;12600;53.326;-6.298;2022-12-10T12:12:40;42.05;;;31.38;;
24421;SDS011;12600;53.326;-6.298;2022-12-10T12:15:42;63.83;;;42.13;;
24421;SDS011;12600;53.326;-6.298;2022-12-10T12:18:41;53.95;;;35.17;;
24421;SDS011;12600;53.326;-6.298;2022-12-10T12:21:39;54.33;;;46.53;;
24421;SDS011;12600;53.326;-6.298;2022-12-10T12:24:32;46.25;;;34.92;;
24421;SDS011;12600;53.326;-6.298;2022-12-10T12:27:26;45.30;;;34.17;;
24421;SDS011;12600;53.326;-6.298;2022-12-10T12:30:20;46.30;;;32.83;;
24421;SDS011;12600;53.326;-6.298;2022-12-10T12:33:11;52.50;;;36.38;;
24421;SDS011;12600;53.326;-6.298;2022-12-10T12:36:09;66.47;;;45.13;;
24421;SDS011;12600;53.326;-6.298;2022-12-10T12:39:08;57.08;;;46.95;;
24421;SDS011;12600;53.326;-6.298;2022-12-10T12:42:11;55.53;;;43.55;;
24421;SDS011;12600;53.326;-6.298;2022-12-10T12:45:08;49.25;;;35.85;;
24421;SDS011;12600;53.326;-6.298;2022-12-10T12:48:06;56.58;;;37.88;;
24421;SDS011;12600;53.326;-6.298;2022-12-10T12:51:10;59.88;;;36.97;;
24421;SDS011;12600;53.326;-6.298;2022-12-10T12:54:06;53.22;;;45.72;;
24421;SDS011;12600;53.326;-6.298;2022-12-10T12:57:01;78.38;;;71.80;;
24421;SDS011;12600;53.326;-6.298;2022-12-10T12:59:56;56.47;;;38.75;;
24421;SDS011;12600;53.326;-6.298;2022-12-10T13:02:53;92.68;;;85.25;;
24421;SDS011;12600;53.326;-6.298;2022-12-10T13:05:54;62.70;;;38.42;;
24421;SDS011;12600;53.326;-6.298;2022-12-10T13:08:44;133.48;;;123.43;;
24421;SDS011;12600;53.326;-6.298;2022-12-10T13:11:36;181.88;;;167.32;;
24421;SDS011;12600;53.326;-6.298;2022-12-10T13:14:31;58.75;;;37.50;;
24421;SDS011;12600;53.326;-6.298;2022-12-10T13:17:27;65.47;;;48.53;;
24421;SDS011;12600;53.326;-6.298;2022-12-10T13:20:31;67.40;;;41.42;;
24421;SDS011;12600;53.326;-6.298;2022-12-10T13:23:29;97.03;;;89.30;;
24421;SDS011;12600;53.326;-6.298;2022-12-10T13:26:30;65.10;;;50.72;;
24421;SDS011;12600;53.326;-6.298;2022-12-10T13:29:25;66.30;;;46.75;;
24421;SDS011;12600;53.326;-6.298;2022-12-10T13:32:16;62.30;;;42.55;;
24421;SDS011;12600;53.326;-6.298;2022-12-10T13:35:15;92.03;;;61.47;;
24421;SDS011;12600;53.326;-6.298;2022-12-10T13:38:19;73.82;;;62.63;;
24421;SDS011;12600;53.326;-6.298;2022-12-10T13:41:11;82.57;;;46.40;;
24421;SDS011;12600;53.326;-6.298;2022-12-10T13:44:30;88.20;;;43.58;;
24421;SDS011;12600;53.326;-6.298;2022-12-10T13:47:41;70.05;;;41.28;;
24421;SDS011;12600;53.326;-6.298;2022-12-10T13:50:35;110.72;;;63.20;;
24421;SDS011;12600;53.326;-6.298;2022-12-10T13:53:33;95.68;;;52.67;;
24421;SDS011;12600;53.326;-6.298;2022-12-10T13:56:36;77.03;;;42.05;;
24421;SDS011;12600;53.326;-6.298;2022-12-10T13:59:37;85.38;;;63.25;;
24421;SDS011;12600;53.326;-6.298;2022-12-10T14:02:48;100.63;;;49.78;;
24421;SDS011;12600;53.326;-6.298;2022-12-10T14:06:12;71.75;;;58.13;;
24421;SDS011;12600;53.326;-6.298;2022-12-10T14:09:05;77.63;;;46.15;;
24421;SDS011;12600;53.326;-6.298;2022-12-10T14:12:01;85.25;;;43.60;;
24421;SDS011;12600;53.326;-6.298;2022-12-10T14:14:56;90.72;;;80.15;;
24421;SDS011;12600;53.326;-6.298;2022-12-10T14:17:48;77.28;;;48.58;;
24421;SDS011;12600;53.326;-6.298;2022-12-10T14:20:43;94.50;;;53.25;;
24421;SDS011;12600;53.326;-6.298;2022-12-10T14:23:35;100.35;;;55.38;;
24421;SDS011;12600;53.326;-6.298;2022-12-10T14:26:41;92.53;;;59.63;;
24421;SDS011;12600;53.326;-6.298;2022-12-10T14:29:31;90.22;;;48.60;;
24421;SDS011;12600;53.326;-6.298;2022-12-10T14:32:23;91.20;;;52.72;;
24421;SDS011;12600;53.326;-6.298;2022-12-10T14:35:20;67.47;;;43.70;;
24421;SDS011;12600;53.326;-6.298;2022-12-10T14:38:14;59.13;;;41.25;;
24421;SDS011;12600;53.326;-6.298;2022-12-10T14:41:08;54.17;;;42.10;;
24421;SDS011;12600;53.326;-6.298;2022-12-10T14:44:02;56.83;;;39.95;;
24421;SDS011;12600;53.326;-6.298;2022-12-10T14:46:52;60.20;;;41.38;;
24421;SDS011;12600;53.326;-6.298;2022-12-10T14:49:55;60.70;;;43.30;;
24421;SDS011;12600;53.326;-6.298;2022-12-10T14:52:45;61.92;;;40.53;;
24421;SDS011;12600;53.326;-6.298;2022-12-10T14:55:38;55.42;;;38.40;;
24421;SDS011;12600;53.326;-6.298;2022-12-10T14:58:29;61.65;;;54.95;;
24421;SDS011;12600;53.326;-6.298;2022-12-10T15:01:29;58.35;;;52.58;;
24421;SDS011;12600;53.326;-6.298;2022-12-10T15:07:15;54.25;;;48.50;;
24421;SDS011;12600;53.326;-6.298;2022-12-10T15:10:12;60.90;;;40.63;;
24421;SDS011;12600;53.326;-6.298;2022-12-10T15:13:14;64.55;;;47.40;;
24421;SDS011;12600;53.326;-6.298;2022-12-10T15:16:15;64.07;;;40.58;;
24421;SDS011;12600;53.326;-6.298;2022-12-10T15:19:07;56.83;;;35.92;;
24421;SDS011;12600;53.326;-6.298;2022-12-10T15:22:15;75.55;;;36.80;;
24421;SDS011;12600;53.326;-6.298;2022-12-10T15:25:22;69.15;;;38.75;;
24421;SDS011;12600;53.326;-6.298;2022-12-10T15:28:23;62.60;;;38.95;;
24421;SDS011;12600;53.326;-6.298;2022-12-10T15:31:19;61.75;;;41.22;;
24421;SDS011;12600;53.326;-6.298;2022-12-10T15:34:17;63.22;;;53.03;;
24421;SDS011;12600;53.326;-6.298;2022-12-10T15:37:11;66.47;;;60.40;;
24421;SDS011;12600;53.326;-6.298;2022-12-10T15:40:21;133.85;;;123.20;;
24421;SDS011;12600;53.326;-6.298;2022-12-10T15:43:19;59.08;;;48.90;;
24421;SDS011;12600;53.326;-6.298;2022-12-10T15:46:16;51.85;;;46.20;;
24421;SDS011;12600;53.326;-6.298;2022-12-10T15:49:07;56.17;;;48.90;;
24421;SDS011;12600;53.326;-6.298;2022-12-10T15:51:56;53.90;;;42.20;;
24421;SDS011;12600;53.326;-6.298;2022-12-10T15:54:48;57.08;;;39.10;;
24421;SDS011;12600;53.326;-6.298;2022-12-10T15:57:39;139.02;;;130.00;;
24421;SDS011;12600;53.326;-6.298;2022-12-10T16:00:31;66.60;;;44.60;;
24421;SDS011;12600;53.326;-6.298;2022-12-10T16:03:21;74.95;;;43.97;;
24421;SDS011;12600;53.326;-6.298;2022-12-10T16:06:15;73.63;;;42.28;;
24421;SDS011;12600;53.326;-6.298;2022-12-10T16:09:06;71.05;;;42.28;;
24421;SDS011;12600;53.326;-6.298;2022-12-10T16:11:58;86.90;;;45.45;;
24421;SDS011;12600;53.326;-6.298;2022-12-10T16:14:49;81.50;;;53.65;;
24421;SDS011;12600;53.326;-6.298;2022-12-10T16:17:43;83.68;;;43.88;;
24421;SDS011;12600;53.326;-6.298;2022-12-10T16:20:33;78.57;;;45.38;;
24421;SDS011;12600;53.326;-6.298;2022-12-10T16:23:22;120.40;;;58.05;;
24421;SDS011;12600;53.326;-6.298;2022-12-10T16:26:12;109.93;;;54.25;;
24421;SDS011;12600;53.326;-6.298;2022-12-10T16:29:07;126.25;;;57.42;;
24421;SDS011;12600;53.326;-6.298;2022-12-10T16:31:57;169.52;;;61.17;;
24421;SDS011;12600;53.326;-6.298;2022-12-10T16:34:47;123.97;;;54.00;;
24421;SDS011;12600;53.326;-6.298;2022-12-10T16:37:37;83.60;;;57.15;;
24421;SDS011;12600;53.326;-6.298;2022-12-10T16:40:28;96.47;;;47.67;;
24421;SDS011;12600;53.326;-6.298;2022-12-10T16:43:18;94.07;;;47.13;;
24421;SDS011;12600;53.326;-6.298;2022-12-10T16:46:11;95.15;;;47.90;;
24421;SDS011;12600;53.326;-6.298;2022-12-10T16:49:00;81.45;;;45.45;;
24421;SDS011;12600;53.326;-6.298;2022-12-10T16:51:50;73.97;;;42.95;;
24421;SDS011;12600;53.326;-6.298;2022-12-10T16:54:40;100.20;;;90.00;;
24421;SDS011;12600;53.326;-6.298;2022-12-10T16:57:30;85.80;;;45.50;;